Time;durP1;ratioP1;P1;durP2;ratioP2;P2;SDS_P1;SDS_P2;PMS_P1;PMS_P2;Temp;Humidity;BMP_temperature;BMP_pressure;BME280_temperature;BME280_humidity;BME280_pressure;Samples;Min_cycle;Max_cycle;Signal;HPM_P1;HPM_P2
2021/07/22 00:01:42;;;;;;;0.73;0.63;;;16.30;99.90;;;;;;4940799;29;20188;-64
2021/07/22 00:04:07;;;;;;;0.67;0.67;;;16.30;99.90;;;;;;4939083;29;20208;-62
2021/07/22 00:06:33;;;;;;;0.40;0.20;;;16.30;99.90;;;;;;4938645;29;20197;-62
2021/07/22 00:08:59;;;;;;;0.40;0.20;;;16.30;99.90;;;;;;4938615;29;20181;-62
2021/07/22 00:11:24;;;;;;;0.40;0.20;;;16.20;99.90;;;;;;4938675;29;20510;-63
2021/07/22 00:13:50;;;;;;;0.40;0.23;;;16.20;99.90;;;;;;4938668;29;20576;-63
2021/07/22 00:16:16;;;;;;;0.40;0.20;;;16.10;99.90;;;;;;4938815;29;20193;-63
2021/07/22 00:18:42;;;;;;;0.50;0.40;;;16.10;99.90;;;;;;4938403;29;20196;-63
2021/07/22 00:21:08;;;;;;;0.40;0.20;;;16.20;99.90;;;;;;4938651;29;20772;-63
2021/07/22 00:23:33;;;;;;;0.40;0.20;;;16.10;99.90;;;;;;4938436;29;20209;-63
2021/07/22 00:26:05;;;;;;;0.40;0.20;;;16.10;99.90;;;;;;4938711;29;20295;-62
2021/07/22 00:28:31;;;;;;;0.40;0.20;;;16.30;99.90;;;;;;4938269;29;20177;-62
2021/07/22 00:30:57;;;;;;;0.83;0.57;;;16.30;99.90;;;;;;4938405;29;20189;-63
2021/07/22 00:33:23;;;;;;;0.50;0.30;;;16.40;99.90;;;;;;4938465;29;20260;-62
2021/07/22 00:35:49;;;;;;;0.40;0.20;;;16.50;99.90;;;;;;4938359;29;20503;-62
2021/07/22 00:38:15;;;;;;;0.40;0.40;;;16.50;99.90;;;;;;4938073;29;20193;-62
2021/07/22 00:40:45;;;;;;;0.40;0.20;;;16.40;99.90;;;;;;4939367;29;20917;-66
2021/07/22 00:43:11;;;;;;;0.40;0.20;;;16.40;99.90;;;;;;4938404;29;20212;-63
2021/07/22 00:45:36;;;;;;;0.40;0.20;;;16.40;99.90;;;;;;4938931;29;20632;-63
2021/07/22 00:48:02;;;;;;;0.40;0.20;;;16.40;99.90;;;;;;4938273;29;20440;-66
2021/07/22 00:50:29;;;;;;;0.40;0.20;;;16.40;99.90;;;;;;4938433;29;20177;-65
2021/07/22 00:52:55;;;;;;;0.40;0.20;;;16.30;99.90;;;;;;4939175;29;20440;-63
2021/07/22 00:55:26;;;;;;;0.40;0.20;;;16.30;99.90;;;;;;4937883;29;20428;-62
2021/07/22 00:57:51;;;;;;;0.40;0.20;;;16.10;99.90;;;;;;4937738;29;20255;-62
2021/07/22 01:00:17;;;;;;;0.40;0.20;;;16.20;99.90;;;;;;4937715;29;20189;-62
2021/07/22 01:02:43;;;;;;;0.40;0.20;;;16.30;99.90;;;;;;4937785;29;20208;-62
2021/07/22 01:05:09;;;;;;;0.40;0.20;;;16.30;99.90;;;;;;4937691;29;20962;-63
2021/07/22 01:07:35;;;;;;;0.40;0.20;;;16.30;99.90;;;;;;4937680;29;20513;-62
2021/07/22 01:10:01;;;;;;;0.40;0.10;;;16.20;99.90;;;;;;4937581;29;20184;-62
2021/07/22 01:12:26;;;;;;;0.40;0.20;;;15.90;99.90;;;;;;4937675;29;20185;-62
2021/07/22 01:14:52;;;;;;;0.40;0.20;;;16.00;99.90;;;;;;4937492;29;20181;-62
2021/07/22 01:17:43;;;;;;;0.70;0.50;;;16.00;99.90;;;;;;4937431;29;20200;-62
2021/07/22 01:20:19;;;;;;;1.52;1.42;;;15.80;99.90;;;;;;4937600;29;20177;-62
2021/07/22 01:22:46;;;;;;;1.23;1.13;;;15.70;99.90;;;;;;4937313;29;20219;-62
2021/07/22 01:25:13;;;;;;;0.50;0.45;;;15.70;99.90;;;;;;4937382;29;20185;-62
2021/07/22 01:27:39;;;;;;;0.50;0.30;;;15.70;99.90;;;;;;4937174;29;20185;-62
2021/07/22 01:30:06;;;;;;;0.40;0.20;;;15.60;99.90;;;;;;4937049;29;20637;-62
2021/07/22 01:32:31;;;;;;;0.40;0.20;;;15.80;99.90;;;;;;4937178;29;20439;-62
2021/07/22 01:34:57;;;;;;;4.57;0.97;;;15.80;99.90;;;;;;4937285;29;20185;-62
2021/07/22 01:37:22;;;;;;;0.40;0.10;;;15.80;99.90;;;;;;4937054;29;20220;-62
2021/07/22 01:39:48;;;;;;;0.40;0.20;;;15.90;99.90;;;;;;4937110;29;20217;-62
2021/07/22 01:42:14;;;;;;;1.20;1.20;;;15.90;99.90;;;;;;4936969;29;20393;-62
2021/07/22 01:44:39;;;;;;;0.40;0.20;;;16.00;99.90;;;;;;4936976;29;20674;-62
2021/07/22 01:47:05;;;;;;;0.40;0.20;;;16.10;99.90;;;;;;4936882;29;20189;-62
2021/07/22 01:49:32;;;;;;;0.40;0.20;;;16.20;99.90;;;;;;4937000;29;20184;-62
2021/07/22 01:52:00;;;;;;;0.40;0.20;;;16.30;99.90;;;;;;4936928;29;20436;-62
2021/07/22 01:54:26;;;;;;;0.40;0.10;;;16.30;99.90;;;;;;4936868;29;20189;-62
2021/07/22 01:56:52;;;;;;;0.40;0.20;;;16.20;99.90;;;;;;4936764;29;20185;-62
2021/07/22 01:59:17;;;;;;;0.40;0.20;;;16.20;99.90;;;;;;4936143;29;20213;-62
2021/07/22 02:01:43;;;;;;;0.40;0.20;;;16.10;99.90;;;;;;4938452;29;20188;-64
2021/07/22 02:04:09;;;;;;;0.40;0.20;;;16.10;99.90;;;;;;4938016;29;20638;-64
2021/07/22 02:06:34;;;;;;;0.40;0.20;;;16.10;99.90;;;;;;4937864;29;20350;-64
2021/07/22 02:09:00;;;;;;;0.40;0.20;;;16.10;99.90;;;;;;4940048;29;20902;-65
2021/07/22 02:11:26;;;;;;;0.40;0.20;;;16.10;99.90;;;;;;4939442;29;20181;-63
2021/07/22 02:13:51;;;;;;;0.40;0.20;;;16.10;99.90;;;;;;4936694;29;20815;-63
2021/07/22 02:16:17;;;;;;;0.40;0.20;;;16.00;99.90;;;;;;4937492;29;20332;-66
2021/07/22 02:18:42;;;;;;;0.40;0.20;;;15.90;99.90;;;;;;4938519;29;20188;-65
2021/07/22 02:21:08;;;;;;;0.40;0.20;;;15.90;99.90;;;;;;4936960;29;20196;-62
2021/07/22 02:23:34;;;;;;;0.40;0.20;;;15.80;99.90;;;;;;4936470;29;20248;-62
2021/07/22 02:26:04;;;;;;;0.40;0.20;;;15.80;99.90;;;;;;4936663;29;20436;-62
2021/07/22 02:28:30;;;;;;;0.40;0.28;;;15.80;99.90;;;;;;4935762;29;20444;-62
2021/07/22 02:30:55;;;;;;;0.40;0.20;;;15.70;99.90;;;;;;4936441;29;20185;-63
2021/07/22 02:33:21;;;;;;;0.40;0.20;;;15.80;99.90;;;;;;4936576;29;20529;-62
2021/07/22 02:35:47;;;;;;;0.40;0.20;;;15.70;99.90;;;;;;4936327;29;20213;-63
2021/07/22 02:38:13;;;;;;;0.70;0.70;;;15.80;99.90;;;;;;4936146;29;20436;-62
2021/07/22 02:40:39;;;;;;;0.40;0.20;;;15.70;99.90;;;;;;4936309;29;20532;-62
2021/07/22 02:43:06;;;;;;;0.40;0.20;;;15.60;99.90;;;;;;4936276;29;20220;-62
2021/07/22 02:45:32;;;;;;;0.50;0.45;;;15.50;99.90;;;;;;4936489;29;20235;-62
2021/07/22 02:47:57;;;;;;;0.40;0.20;;;15.60;99.90;;;;;;4936180;29;20618;-62
2021/07/22 02:50:23;;;;;;;0.40;0.10;;;15.70;99.90;;;;;;4936490;29;20432;-62
2021/07/22 02:52:49;;;;;;;0.40;0.20;;;15.60;99.90;;;;;;4936271;29;20185;-62
2021/07/22 02:55:14;;;;;;;0.40;0.20;;;15.70;99.90;;;;;;4936307;29;20433;-62
2021/07/22 02:57:40;;;;;;;0.40;0.20;;;15.60;99.90;;;;;;4936371;29;20187;-62
2021/07/22 03:00:07;;;;;;;0.40;0.20;;;15.50;99.90;;;;;;4936145;29;20181;-62
2021/07/22 03:02:33;;;;;;;0.40;0.20;;;15.50;99.90;;;;;;4919478;29;20548;-62
2021/07/22 03:04:58;;;;;;;0.40;0.20;;;15.30;99.90;;;;;;4919569;29;20208;-62
2021/07/22 03:07:24;;;;;;;0.40;0.20;;;15.40;99.90;;;;;;4936330;29;20177;-62
2021/07/22 03:09:50;;;;;;;0.40;0.20;;;15.30;99.90;;;;;;4936259;29;20566;-62
2021/07/22 03:12:16;;;;;;;0.40;0.20;;;15.20;99.90;;;;;;4938065;29;20173;-62
2021/07/22 03:14:41;;;;;;;0.40;0.20;;;15.30;99.90;;;;;;4940643;29;20257;-62
2021/07/22 03:17:07;;;;;;;0.40;0.20;;;15.40;99.90;;;;;;4940394;29;20479;-62
2021/07/22 03:19:33;;;;;;;0.40;0.20;;;15.40;99.90;;;;;;4940710;29;20248;-62
2021/07/22 03:21:58;;;;;;;0.40;0.20;;;15.40;99.90;;;;;;4940483;29;20184;-62
2021/07/22 03:24:25;;;;;;;0.40;0.10;;;15.50;99.90;;;;;;4940252;29;20224;-62
2021/07/22 03:26:51;;;;;;;0.40;0.20;;;15.50;99.90;;;;;;4941047;29;20177;-65
2021/07/22 03:29:17;;;;;;;0.50;0.50;;;15.50;99.90;;;;;;4942170;29;20177;-64
2021/07/22 03:31:42;;;;;;;0.40;0.20;;;15.50;99.90;;;;;;4926956;29;20181;-64
2021/07/22 03:34:08;;;;;;;0.40;0.20;;;15.40;99.90;;;;;;4944526;29;20216;-64
2021/07/22 03:36:33;;;;;;;0.40;0.27;;;15.60;99.90;;;;;;4942119;29;20637;-65
2021/07/22 03:38:59;;;;;;;0.40;0.20;;;15.70;99.90;;;;;;4942761;29;20185;-64
2021/07/22 03:41:26;;;;;;;0.40;0.20;;;15.80;99.90;;;;;;4942914;29;20244;-64
2021/07/22 03:43:51;;;;;;;0.40;0.20;;;15.90;99.90;;;;;;4944650;29;20581;-64
2021/07/22 03:46:17;;;;;;;0.40;0.20;;;16.10;99.90;;;;;;4945007;29;20189;-64
2021/07/22 03:48:43;;;;;;;0.40;0.20;;;16.10;99.90;;;;;;4927767;29;20200;-64
2021/07/22 03:51:09;;;;;;;0.40;0.20;;;16.30;99.90;;;;;;4944267;29;20184;-64
2021/07/22 03:53:34;;;;;;;0.40;0.20;;;16.30;99.90;;;;;;4944297;29;20289;-64
2021/07/22 03:56:01;;;;;;;0.93;0.70;;;16.50;99.90;;;;;;4944208;29;20223;-64
2021/07/22 03:58:27;;;;;;;0.40;0.20;;;16.50;99.90;;;;;;4943021;29;20192;-64
2021/07/22 04:00:54;;;;;;;0.40;0.20;;;16.70;99.90;;;;;;4940369;29;20240;-64
2021/07/22 04:03:21;;;;;;;0.40;0.20;;;16.70;99.90;;;;;;4940383;29;20270;-66
2021/07/22 04:05:46;;;;;;;0.40;0.20;;;16.70;99.90;;;;;;4939547;29;20192;-65
2021/07/22 04:08:12;;;;;;;0.40;0.20;;;16.60;99.90;;;;;;4938801;29;20625;-65
2021/07/22 04:10:37;;;;;;;1.37;1.27;;;16.60;99.90;;;;;;4939235;29;20181;-65
2021/07/22 04:13:03;;;;;;;0.40;0.10;;;16.80;99.90;;;;;;4939247;29;20196;-67
2021/07/22 04:15:29;;;;;;;0.40;0.20;;;16.90;99.90;;;;;;4939267;29;20177;-66
2021/07/22 04:17:56;;;;;;;0.40;0.17;;;17.00;99.90;;;;;;4939479;29;20196;-66
2021/07/22 04:20:24;;;;;;;0.50;0.20;;;17.20;99.90;;;;;;4939426;29;20429;-65
2021/07/22 04:22:50;;;;;;;0.90;0.82;;;17.40;55.80;;;;;;4920026;29;20658;-63
2021/07/22 04:25:16;;;;;;;0.40;0.20;;;17.40;1.00;;;;;;4904369;29;20644;-63
2021/07/22 04:27:42;;;;;;;0.40;0.20;;;17.30;1.00;;;;;;4937628;29;20177;-63
2021/07/22 04:30:09;;;;;;;0.40;0.20;;;17.50;1.00;;;;;;4937238;29;20185;-63
2021/07/22 04:32:35;;;;;;;0.40;0.20;;;17.60;1.00;;;;;;4937478;29;20436;-63
2021/07/22 04:35:01;;;;;;;0.40;0.20;;;17.80;1.00;;;;;;4937970;29;20770;-65
2021/07/22 04:37:27;;;;;;;0.40;0.20;;;17.90;1.00;;;;;;4921097;29;20910;-65
2021/07/22 04:39:53;;;;;;;0.40;0.20;;;18.10;1.00;;;;;;4937133;29;20436;-65
2021/07/22 04:42:21;;;;;;;0.40;0.20;;;18.20;1.00;;;;;;4938201;29;20442;-65
2021/07/22 04:44:46;;;;;;;0.40;0.20;;;18.40;1.00;;;;;;4937804;29;20181;-65
2021/07/22 04:47:12;;;;;;;0.40;0.20;;;18.70;1.00;;;;;;4937711;29;20593;-65
2021/07/22 04:49:37;;;;;;;0.40;0.20;;;19.10;99.90;;;;;;4937361;29;20236;-65
2021/07/22 04:52:03;;;;;;;0.40;0.20;;;19.50;99.90;;;;;;4937407;29;20196;-65
2021/07/22 04:54:32;;;;;;;0.40;0.20;;;19.70;1.00;;;;;;4920567;29;20268;-66
2021/07/22 04:56:57;;;;;;;0.40;0.20;;;19.80;1.00;;;;;;4936999;29;20428;-65
2021/07/22 04:59:23;;;;;;;0.40;0.20;;;20.20;99.90;;;;;;4937226;29;20459;-65
2021/07/22 05:01:48;;;;;;;0.40;0.20;;;21.20;1.00;;;;;;4920347;29;20317;-65
2021/07/22 05:04:20;;;;;;;0.40;0.20;;;22.80;1.00;;;;;;4936705;29;20201;-66
2021/07/22 05:06:45;;;;;;;0.40;0.20;;;24.00;1.00;;;;;;4851964;29;2511118;-67
2021/07/22 05:09:11;;;;;;;0.40;0.20;;;24.70;99.90;;;;;;4937581;29;20193;-65
2021/07/22 05:11:36;;;;;;;0.40;0.20;;;24.90;99.90;;;;;;4937459;29;20189;-65
2021/07/22 05:14:02;;;;;;;0.47;0.20;;;24.90;45.40;;;;;;4937698;29;20185;-66
2021/07/22 05:16:28;;;;;;;0.40;0.20;;;24.50;99.90;;;;;;4937757;29;20593;-66
2021/07/22 05:18:53;;;;;;;0.40;0.20;;;23.80;99.90;;;;;;4937486;29;20977;-66
2021/07/22 05:21:19;;;;;;;0.40;0.20;;;22.50;1.00;;;;;;4937706;29;20184;-65
2021/07/22 05:23:45;;;;;;;0.40;0.20;;;22.30;99.90;;;;;;4937576;29;20657;-65
2021/07/22 05:26:11;;;;;;;0.40;0.20;;;22.40;99.90;;;;;;4937468;29;20615;-65
2021/07/22 05:28:38;;;;;;;0.40;0.20;;;22.70;1.00;;;;;;4937384;29;20920;-65
2021/07/22 05:31:08;;;;;;;1.40;1.33;;;23.30;1.00;;;;;;4937427;29;20758;-65
2021/07/22 05:33:34;;;;;;;2.57;2.37;;;24.60;99.90;;;;;;4937413;29;20782;-65
2021/07/22 05:36:02;;;;;;;1.63;1.23;;;25.50;1.00;;;;;;4936920;29;20457;-63
2021/07/22 05:38:32;;;;;;;0.63;0.63;;;26.10;1.00;;;;;;4936924;29;20468;-67
2021/07/22 05:41:02;;;;;;;0.50;0.40;;;27.10;1.00;;;;;;4937243;29;20877;-66
2021/07/22 05:43:28;;;;;;;1.23;1.23;;;28.20;1.00;;;;;;4937110;29;20945;-63
2021/07/22 05:45:54;;;;;;;0.40;0.20;;;28.60;1.00;;;;;;4937181;29;20433;-64
2021/07/22 05:48:20;;;;;;;0.50;0.20;;;29.70;1.00;;;;;;4936881;29;20687;-66
2021/07/22 05:50:47;;;;;;;0.67;0.67;;;30.00;1.00;;;;;;4937292;29;20440;-64
2021/07/22 05:53:12;;;;;;;0.77;0.77;;;31.00;1.00;;;;;;4937025;29;20436;-63
2021/07/22 05:55:38;;;;;;;0.40;0.10;;;30.20;1.00;;;;;;4937130;29;20448;-64
2021/07/22 05:58:04;;;;;;;0.43;0.23;;;28.80;1.00;;;;;;4936826;29;20189;-63
2021/07/22 06:00:29;;;;;;;0.40;0.20;;;27.10;1.00;;;;;;4936650;29;20582;-63
2021/07/22 06:02:55;;;;;;;0.57;0.30;;;26.00;1.00;;;;;;4936602;29;20645;-63
2021/07/22 06:05:21;;;;;;;0.63;0.63;;;25.10;1.00;;;;;;4936361;29;20654;-62
2021/07/22 06:07:46;;;;;;;1.37;1.27;;;25.10;1.00;;;;;;4936641;29;20640;-63
2021/07/22 06:10:13;;;;;;;0.50;0.30;;;25.60;1.00;;;;;;4936557;29;20236;-64
2021/07/22 06:12:45;;;;;;;0.40;0.10;;;26.10;1.00;;;;;;4936541;29;20205;-63
2021/07/22 06:15:11;;;;;;;0.50;0.40;;;26.20;1.00;;;;;;4936714;29;20436;-62
2021/07/22 06:17:37;;;;;;;3.13;2.00;;;26.30;1.00;;;;;;4936847;29;20528;-63
2021/07/22 06:20:07;;;;;;;0.40;0.20;;;25.70;1.00;;;;;;4936590;29;20259;-62
2021/07/22 06:22:34;;;;;;;0.50;0.30;;;25.50;1.00;;;;;;4936539;29;20469;-62
2021/07/22 06:25:00;;;;;;;0.40;0.20;;;24.80;1.00;;;;;;4936691;29;20447;-63
2021/07/22 06:27:26;;;;;;;3.20;2.93;;;24.20;36.50;;;;;;4936492;29;20901;-63
2021/07/22 06:29:52;;;;;;;0.43;0.23;;;23.70;99.90;;;;;;4936378;29;20201;-62
2021/07/22 06:32:17;;;;;;;0.40;0.20;;;23.60;99.90;;;;;;4936297;29;20181;-63
2021/07/22 06:34:43;;;;;;;1.37;1.27;;;24.00;99.90;;;;;;4936386;29;20266;-63
2021/07/22 06:37:09;;;;;;;0.40;0.20;;;25.60;1.00;;;;;;4936224;29;20248;-63
2021/07/22 06:39:35;;;;;;;0.40;0.17;;;26.50;1.00;;;;;;4936126;29;20239;-62
2021/07/22 06:42:02;;;;;;;0.40;0.20;;;27.00;1.00;;;;;;4936287;29;20428;-63
2021/07/22 06:44:28;;;;;;;0.40;0.20;;;27.20;1.00;;;;;;4936328;29;20480;-63
2021/07/22 06:46:54;;;;;;;1.43;0.60;;;26.50;1.00;;;;;;4937074;29;20916;-63
2021/07/22 06:49:19;;;;;;;0.83;0.83;;;25.80;1.00;;;;;;4940260;29;20425;-63
2021/07/22 06:51:45;;;;;;;0.40;0.20;;;25.10;1.00;;;;;;4940164;29;20515;-63
2021/07/22 06:54:12;;;;;;;0.40;0.20;;;23.90;82.50;;;;;;4939479;29;20263;-63
2021/07/22 06:56:37;;;;;;;0.40;0.20;;;24.70;1.00;;;;;;4939906;29;20181;-63
2021/07/22 06:59:03;;;;;;;0.80;0.70;;;26.20;1.00;;;;;;4939707;29;20443;-63
2021/07/22 07:01:28;;;;;;;0.50;0.20;;;24.80;1.00;;;;;;4940024;29;20184;-66
2021/07/22 07:03:57;;;;;;;0.80;0.70;;;25.80;1.00;;;;;;4940187;29;20219;-73
2021/07/22 07:06:23;;;;;;;0.50;0.20;;;25.30;1.00;;;;;;4928727;28;20475;-71
2021/07/22 07:08:48;;;;;;;0.50;0.40;;;23.60;1.00;;;;;;4967217;28;20522;-67
2021/07/22 07:11:14;;;;;;;0.50;0.30;;;23.80;1.00;;;;;;4973290;28;20512;-66
2021/07/22 07:13:39;;;;;;;1.27;0.83;;;23.20;1.00;;;;;;4981393;28;20188;-68
2021/07/22 07:16:06;;;;;;;0.50;0.20;;;23.50;1.00;;;;;;4965371;28;20195;-68
2021/07/22 07:18:32;;;;;;;0.50;0.20;;;23.30;1.00;;;;;;4960439;29;20271;-68
2021/07/22 07:21:05;;;;;;;0.50;0.20;;;23.20;1.00;;;;;;4960647;29;20471;-69
2021/07/22 07:23:34;;;;;;;0.43;0.20;;;23.80;1.00;;;;;;4964755;28;20463;-68
2021/07/22 07:26:00;;;;;;;0.50;0.20;;;23.40;1.00;;;;;;4979295;28;20935;-68
2021/07/22 07:28:26;;;;;;;0.50;0.33;;;23.90;1.00;;;;;;4978530;28;20430;-68
2021/07/22 07:30:51;;;;;;;0.90;0.43;;;23.90;1.00;;;;;;4978336;28;20493;-68
2021/07/22 07:33:17;;;;;;;0.50;0.20;;;23.60;1.00;;;;;;4979158;28;20513;-69
2021/07/22 07:35:43;;;;;;;0.50;0.20;;;24.40;1.00;;;;;;4978056;28;20271;-71
2021/07/22 07:38:09;;;;;;;0.50;0.20;;;26.80;1.00;;;;;;4977430;28;20463;-71
2021/07/22 07:40:37;;;;;;;0.50;0.20;;;27.30;1.00;;;;;;4973314;28;20206;-70
2021/07/22 07:43:03;;;;;;;0.50;0.30;;;25.80;1.00;;;;;;4958266;29;20459;-64
2021/07/22 07:45:29;;;;;;;0.47;0.20;;;24.00;1.00;;;;;;4941288;29;20432;-68
2021/07/22 07:47:55;;;;;;;3.00;2.80;;;22.80;13.40;;;;;;4940998;29;20716;-66
2021/07/22 07:50:21;;;;;;;0.50;0.13;;;22.70;81.70;;;;;;4957132;29;20468;-70
2021/07/22 07:52:48;;;;;;;3.13;0.60;;;22.20;99.90;;;;;;4943812;28;20810;-69
2021/07/22 07:55:17;;;;;;;0.50;0.20;;;22.30;99.90;;;;;;4952675;29;20208;-63
2021/07/22 07:57:43;;;;;;;0.50;0.40;;;21.50;99.90;;;;;;4921812;29;20524;-63
2021/07/22 08:00:09;;;;;;;1.33;1.13;;;22.00;99.90;;;;;;4949473;29;20546;-67
2021/07/22 08:02:35;;;;;;;1.03;0.77;;;21.50;99.90;;;;;;4957643;29;20668;-66
2021/07/22 08:05:01;;;;;;;0.77;0.40;;;21.50;99.90;;;;;;4957812;29;20531;-63
2021/07/22 08:07:27;;;;;;;0.50;0.20;;;21.10;1.00;;;;;;4956639;29;20480;-64
2021/07/22 08:09:53;;;;;;;0.40;0.20;;;21.20;1.00;;;;;;4938505;29;20456;-68
2021/07/22 08:12:19;;;;;;;0.50;0.20;;;21.90;99.90;;;;;;4938680;29;20421;-69
2021/07/22 08:14:46;;;;;;;0.50;0.20;;;22.20;99.90;;;;;;4943554;29;20845;-68
2021/07/22 08:17:16;;;;;;;0.50;0.40;;;21.90;99.90;;;;;;4957425;29;20502;-64
2021/07/22 08:19:41;;;;;;;1.57;1.47;;;21.30;1.00;;;;;;4957468;29;20427;-68
2021/07/22 08:22:10;;;;;;;1.00;0.90;;;21.10;65.60;;;;;;4957628;29;20447;-68
2021/07/22 08:24:35;;;;;;;0.70;0.40;;;20.60;1.00;;;;;;4957424;29;20223;-68
2021/07/22 08:27:01;;;;;;;0.40;0.20;;;20.80;1.00;;;;;;4957351;29;20420;-70
2021/07/22 08:29:27;;;;;;;1.53;1.43;;;21.30;99.90;;;;;;4957441;29;20215;-68
2021/07/22 08:31:52;;;;;;;0.50;0.20;;;21.70;1.00;;;;;;4940314;29;20188;-66
2021/07/22 08:34:19;;;;;;;0.60;0.40;;;21.20;99.90;;;;;;4957239;29;20227;-68
2021/07/22 08:36:45;;;;;;;0.50;0.20;;;21.30;1.00;;;;;;4957187;29;20184;-69
2021/07/22 08:39:11;;;;;;;0.60;0.53;;;21.30;10.30;;;;;;4945235;29;20508;-68
2021/07/22 08:41:41;;;;;;;0.83;0.80;;;21.40;46.70;;;;;;4937120;29;20192;-68
2021/07/22 08:44:08;;;;;;;1.13;0.83;;;21.70;1.00;;;;;;4937028;29;20709;-67
2021/07/22 08:46:34;;;;;;;0.50;0.10;;;21.60;1.00;;;;;;4938199;29;20500;-64
2021/07/22 08:49:00;;;;;;;0.90;0.67;;;21.80;99.90;;;;;;4937026;29;20770;-63
2021/07/22 08:51:27;;;;;;;0.60;0.30;;;21.70;99.90;;;;;;4938165;29;20424;-68
2021/07/22 08:53:52;;;;;;;0.50;0.20;;;21.30;1.00;;;;;;4938129;29;20437;-65
2021/07/22 08:56:23;;;;;;;0.50;0.20;;;20.80;99.90;;;;;;4921251;29;20495;-68
2021/07/22 08:58:49;;;;;;;0.50;0.20;;;20.30;1.00;;;;;;4937677;29;20181;-69
2021/07/22 09:01:18;;;;;;;0.50;0.20;;;21.00;99.90;;;;;;4937823;29;21116;-64
2021/07/22 09:03:43;;;;;;;1.60;1.50;;;20.90;99.90;;;;;;4937679;29;20917;-69
2021/07/22 09:06:16;;;;;;;2.23;2.10;;;21.40;1.00;;;;;;4937839;29;20455;-68
2021/07/22 09:08:42;;;;;;;0.50;0.20;;;21.40;1.00;;;;;;4937536;29;20275;-64
2021/07/22 09:11:10;;;;;;;0.40;0.20;;;21.80;1.00;;;;;;4937290;29;20420;-68
2021/07/22 09:13:36;;;;;;;0.50;0.20;;;21.50;1.00;;;;;;4920900;29;20437;-63
2021/07/22 09:16:02;;;;;;;0.83;0.83;;;21.40;1.00;;;;;;4937738;29;20428;-68
2021/07/22 09:18:36;;;;;;;0.77;0.50;;;21.40;1.00;;;;;;4936982;29;20890;-63
2021/07/22 09:21:22;;;;;;;0.50;0.30;;;21.20;1.00;;;;;;4920548;29;20520;-64
2021/07/22 09:24:14;;;;;;;0.57;0.47;;;21.40;1.00;;;;;;4937392;29;20469;-63
2021/07/22 09:26:43;;;;;;;0.50;0.30;;;21.70;1.00;;;;;;4934468;29;20531;-63
2021/07/22 09:29:12;;;;;;;0.50;0.20;;;22.30;99.90;;;;;;4937353;29;20440;-69
2021/07/22 09:31:38;;;;;;;0.83;0.77;;;22.20;99.90;;;;;;4937072;29;20760;-69
2021/07/22 09:34:25;;;;;;;1.13;0.40;;;21.70;99.90;;;;;;4937203;29;20453;-68
2021/07/22 09:36:51;;;;;;;0.50;0.20;;;20.90;1.00;;;;;;4937079;29;20432;-69
2021/07/22 09:39:19;;;;;;;0.50;0.30;;;20.90;4.90;;;;;;4963438;28;20463;-67
2021/07/22 09:41:45;;;;;;;0.50;0.20;;;20.80;98.50;;;;;;4964535;28;20519;-68
2021/07/22 09:44:34;;;;;;;0.50;0.13;;;21.90;1.00;;;;;;4966035;28;20458;-69
2021/07/22 09:47:00;;;;;;;0.50;0.40;;;21.90;99.90;;;;;;4964219;28;20436;-69
2021/07/22 09:49:40;;;;;;;1.00;0.60;;;22.30;99.90;;;;;;4964476;28;20526;-64
2021/07/22 09:52:18;;;;;;;0.50;0.20;;;21.30;1.00;;;;;;4964325;28;20427;-64
2021/07/22 09:54:44;;;;;;;0.50;0.20;;;20.90;1.00;;;;;;4964456;28;20489;-69
2021/07/22 09:57:20;;;;;;;0.50;0.20;;;21.40;1.00;;;;;;4961767;28;20432;-62
2021/07/22 09:59:47;;;;;;;0.50;0.20;;;21.40;1.00;;;;;;4964262;28;20518;-65
2021/07/22 10:02:21;;;;;;;0.80;0.37;;;21.10;1.00;;;;;;4972251;28;20816;-63
2021/07/22 10:05:03;;;;;;;1.40;1.30;;;21.00;1.00;;;;;;4975204;28;20430;-63
2021/07/22 10:07:30;;;;;;;0.50;0.50;;;20.70;1.00;;;;;;4942984;28;20446;-64
2021/07/22 10:09:58;;;;;;;0.50;0.40;;;21.10;1.00;;;;;;4961665;28;20415;-62
2021/07/22 10:12:24;;;;;;;0.80;0.67;;;21.30;1.00;;;;;;4964379;28;20432;-62
2021/07/22 10:14:55;;;;;;;0.50;0.20;;;21.60;99.90;;;;;;4965770;28;20935;-63
2021/07/22 10:17:27;;;;;;;0.50;0.20;;;21.10;1.00;;;;;;4962313;28;20490;-64
2021/07/22 10:19:56;;;;;;;0.60;0.40;;;21.50;99.90;;;;;;4963700;28;20543;-69
2021/07/22 10:22:27;;;;;;;0.50;0.20;;;22.10;99.90;;;;;;4947665;28;20442;-64
2021/07/22 10:24:54;;;;;;;0.50;0.20;;;22.30;99.90;;;;;;4947031;28;20443;-67
2021/07/22 10:27:21;;;;;;;0.50;0.20;;;22.10;99.90;;;;;;4965355;28;20474;-63
2021/07/22 10:29:47;;;;;;;1.40;1.30;;;22.50;97.50;;;;;;4964845;28;20486;-66
2021/07/22 10:32:16;;;;;;;0.57;0.20;;;23.00;1.00;;;;;;4963580;28;20435;-70
2021/07/22 10:34:43;;;;;;;2.83;1.27;;;22.50;57.30;;;;;;4964855;28;20187;-65
2021/07/22 10:37:09;;;;;;;0.60;0.30;;;21.90;99.90;;;;;;4964995;28;20439;-67
2021/07/22 10:40:06;;;;;;;0.60;0.40;;;21.80;99.90;;;;;;4963534;28;20436;-66
2021/07/22 10:42:39;;;;;;;0.50;0.30;;;20.90;1.00;;;;;;4946582;28;20656;-68
2021/07/22 10:45:20;;;;;;;1.90;1.20;;;21.00;1.00;;;;;;4963611;28;20427;-62
2021/07/22 10:48:05;;;;;;;0.50;0.20;;;21.00;1.00;;;;;;4963227;28;20904;-66
2021/07/22 10:50:37;;;;;;;2.80;0.40;;;21.10;99.90;;;;;;4967480;28;20415;-63
2021/07/22 10:53:04;;;;;;;0.50;0.20;;;20.90;1.00;;;;;;4974468;28;20434;-68
2021/07/22 10:55:45;;;;;;;0.50;0.50;;;21.40;99.90;;;;;;4974541;28;20435;-64
2021/07/22 10:58:23;;;;;;;0.40;0.10;;;21.20;99.90;;;;;;4974869;28;20423;-68
2021/07/22 11:00:49;;;;;;;0.50;0.20;;;21.10;99.90;;;;;;4974502;28;20817;-67
2021/07/22 11:03:36;;;;;;;0.50;0.20;;;21.50;99.90;;;;;;4971008;28;20474;-67
2021/07/22 11:06:12;;;;;;;0.90;0.40;;;21.90;99.90;;;;;;4954989;28;20447;-68
2021/07/22 11:08:42;;;;;;;0.80;0.50;;;22.60;64.20;;;;;;4955116;29;20427;-66
2021/07/22 11:11:09;;;;;;;1.30;0.87;;;22.40;73.20;;;;;;4955388;29;20912;-67
2021/07/22 11:13:34;;;;;;;0.50;0.20;;;21.70;99.90;;;;;;4965189;28;20435;-68
2021/07/22 11:16:04;;;;;;;0.50;0.20;;;21.90;99.90;;;;;;4962972;28;20432;-68
2021/07/22 11:18:54;;;;;;;0.70;0.70;;;22.00;99.90;;;;;;4955774;29;20181;-66
2021/07/22 11:21:33;;;;;;;0.50;0.20;;;22.40;39.60;;;;;;4958293;28;20799;-66
2021/07/22 11:24:16;;;;;;;0.70;0.47;;;22.90;29.80;;;;;;4960364;28;20466;-63
2021/07/22 11:26:43;;;;;;;1.13;1.03;;;22.40;20.30;;;;;;4963836;28;20431;-68
2021/07/22 11:29:10;;;;;;;1.70;0.83;;;22.40;1.00;;;;;;4955727;29;20419;-68
2021/07/22 11:31:47;;;;;;;0.50;0.20;;;22.40;10.50;;;;;;4956018;29;20897;-67
2021/07/22 11:34:14;;;;;;;1.17;0.77;;;22.40;26.30;;;;;;4958166;28;20514;-70
2021/07/22 11:36:40;;;;;;;0.60;0.30;;;21.30;99.90;;;;;;4958477;29;20428;-64
2021/07/22 11:39:07;;;;;;;0.70;0.40;;;20.90;99.90;;;;;;4958375;29;20522;-64
2021/07/22 11:41:32;;;;;;;0.50;0.20;;;20.70;99.90;;;;;;4958364;29;20264;-62
2021/07/22 11:44:00;;;;;;;1.30;0.87;;;20.70;99.90;;;;;;4958293;29;20558;-63
2021/07/22 11:46:40;;;;;;;1.40;0.90;;;21.00;99.90;;;;;;4958274;29;20180;-63
2021/07/22 11:49:16;;;;;;;0.50;0.20;;;21.50;68.00;;;;;;4958378;29;20431;-63
2021/07/22 11:51:45;;;;;;;0.50;0.20;;;22.00;1.00;;;;;;4958630;29;20428;-64
2021/07/22 11:54:12;;;;;;;0.50;0.20;;;23.00;1.00;;;;;;4958271;29;20909;-63
2021/07/22 11:56:39;;;;;;;0.93;0.67;;;23.80;1.00;;;;;;4958383;29;20512;-65
2021/07/22 11:59:08;;;;;;;0.60;0.40;;;23.80;1.00;;;;;;4957803;29;20877;-63
2021/07/22 12:01:48;;;;;;;0.70;0.57;;;22.60;1.00;;;;;;4958196;29;20443;-65
2021/07/22 12:04:26;;;;;;;4.63;1.23;;;22.10;1.00;;;;;;4958089;29;20514;-64
2021/07/22 12:06:51;;;;;;;0.80;0.50;;;21.90;2.80;;;;;;4957649;29;20549;-63
2021/07/22 12:09:17;;;;;;;0.50;0.20;;;21.70;1.00;;;;;;4957828;29;20515;-64
2021/07/22 12:11:48;;;;;;;0.50;0.30;;;21.50;25.80;;;;;;4958047;29;20208;-63
2021/07/22 12:14:23;;;;;;;0.90;0.40;;;21.50;24.90;;;;;;4957975;29;20176;-63
2021/07/22 12:16:49;;;;;;;0.50;0.30;;;21.60;53.10;;;;;;4938671;29;20423;-64
2021/07/22 12:19:15;;;;;;;0.70;0.47;;;21.70;28.00;;;;;;4938271;29;20947;-66
2021/07/22 12:21:40;;;;;;;0.50;0.20;;;21.60;9.00;;;;;;4938733;29;20232;-66
2021/07/22 12:24:18;;;;;;;0.70;0.50;;;22.10;1.00;;;;;;4938554;29;20208;-66
2021/07/22 12:26:44;;;;;;;0.50;0.20;;;21.90;1.00;;;;;;4938524;29;20176;-65
2021/07/22 12:29:10;;;;;;;8.30;1.80;;;21.70;30.70;;;;;;4938259;29;20768;-64
2021/07/22 12:31:39;;;;;;;1.17;0.60;;;21.50;1.00;;;;;;4938485;29;20461;-65
2021/07/22 12:34:05;;;;;;;0.63;0.40;;;21.30;82.80;;;;;;4938764;29;20215;-63
2021/07/22 12:36:35;;;;;;;0.50;0.20;;;21.10;99.90;;;;;;4938281;29;20770;-64
2021/07/22 12:39:25;;;;;;;0.70;0.47;;;21.50;1.00;;;;;;4938216;29;20828;-63
2021/07/22 12:41:51;;;;;;;0.67;0.63;;;21.50;42.10;;;;;;4938134;29;20429;-63
2021/07/22 12:44:46;;;;;;;0.60;0.60;;;21.80;1.00;;;;;;4937087;29;20888;-67
2021/07/22 12:47:30;;;;;;;0.60;0.40;;;22.00;1.00;;;;;;4938235;29;20260;-67
2021/07/22 12:49:57;;;;;;;1.90;1.13;;;22.10;1.00;;;;;;4938384;29;20829;-67
2021/07/22 12:52:23;;;;;;;2.90;1.70;;;22.20;1.00;;;;;;4938852;29;20448;-69
2021/07/22 12:54:48;;;;;;;0.50;0.20;;;21.90;1.00;;;;;;4938854;29;20792;-69